createdAt,value
2018-12-05T00:01:12.374Z,39.50
2018-12-05T00:03:40.869Z,41.33
2018-12-05T00:06:09.601Z,38.40
2018-12-05T00:08:38.114Z,44.40
2018-12-05T00:11:06.870Z,37.70
2018-12-05T00:13:35.410Z,39.87
2018-12-05T00:16:03.975Z,31.37
2018-12-05T00:18:32.499Z,38.23
2018-12-05T00:21:01.295Z,39.30
2018-12-05T00:23:29.816Z,39.30
2018-12-05T00:25:58.350Z,34.90
2018-12-05T00:28:26.856Z,37.97
2018-12-05T00:30:55.656Z,39.20
2018-12-05T00:33:24.192Z,38.57
2018-12-05T00:35:52.753Z,41.07
2018-12-05T00:38:21.259Z,45.77
2018-12-05T00:40:49.826Z,46.47
2018-12-05T00:43:18.339Z,50.93
2018-12-05T00:45:47.178Z,46.37
2018-12-05T00:48:15.711Z,35.67
2018-12-05T00:50:44.467Z,35.13
2018-12-05T00:53:13.102Z,36.90
2018-12-05T00:55:41.672Z,35.63
2018-12-05T00:58:10.210Z,38.63
2018-12-05T01:00:38.765Z,42.13
2018-12-05T01:03:07.297Z,40.50
2018-12-05T01:05:35.866Z,32.03
2018-12-05T01:08:04.710Z,33.43
2018-12-05T01:10:33.577Z,36.60
2018-12-05T01:13:02.126Z,26.63
2018-12-05T01:15:30.954Z,30.27
2018-12-05T01:17:59.459Z,25.27
2018-12-05T01:20:27.989Z,25.63
2018-12-05T01:22:56.509Z,22.67
2018-12-05T01:25:25.074Z,25.67
2018-12-05T01:27:53.600Z,25.00
2018-12-05T01:30:22.149Z,23.10
2018-12-05T01:32:50.655Z,22.63
2018-12-05T01:35:19.455Z,20.50
2018-12-05T01:37:47.978Z,31.13
2018-12-05T01:40:16.529Z,32.07
2018-12-05T01:42:45.058Z,30.93
2018-12-05T01:45:13.627Z,27.23
2018-12-05T01:47:42.202Z,31.53
2018-12-05T01:50:10.867Z,30.93
2018-12-05T01:52:39.390Z,28.17
2018-12-05T01:55:07.941Z,22.53
2018-12-05T01:57:36.502Z,27.63
2018-12-05T02:00:05.991Z,25.00
2018-12-05T02:02:34.598Z,24.67
2018-12-05T02:05:03.119Z,27.73
2018-12-05T02:07:31.687Z,29.07
2018-12-05T02:10:00.236Z,23.80
2018-12-05T02:12:28.821Z,25.30
2018-12-05T02:14:57.420Z,21.23
2018-12-05T02:17:25.964Z,29.73
2018-12-05T02:19:54.519Z,25.60
2018-12-05T02:22:23.071Z,25.00
2018-12-05T02:24:51.935Z,23.83
2018-12-05T02:27:20.480Z,30.47
2018-12-05T02:29:54.606Z,23.67
2018-12-05T02:32:23.179Z,27.53
2018-12-05T02:34:51.817Z,32.07
2018-12-05T02:37:20.325Z,20.83
2018-12-05T02:39:48.962Z,26.40
2018-12-05T02:42:17.490Z,23.10
2018-12-05T02:44:46.252Z,27.87
2018-12-05T02:47:14.771Z,23.47
2018-12-05T02:49:43.449Z,22.80
2018-12-05T02:52:11.968Z,26.87
2018-12-05T02:54:40.746Z,27.73
2018-12-05T02:57:09.254Z,26.10
2018-12-05T02:59:37.871Z,24.07
2018-12-05T03:02:06.371Z,27.63
2018-12-05T03:04:35.238Z,28.30
2018-12-05T03:07:03.735Z,21.93
2018-12-05T03:09:32.744Z,24.47
2018-12-05T03:12:01.271Z,24.33
2018-12-05T03:14:29.871Z,25.53
2018-12-05T03:16:58.378Z,24.07
2018-12-05T03:19:27.180Z,26.77
2018-12-05T03:21:55.686Z,29.20
2018-12-05T03:24:24.229Z,31.67
2018-12-05T03:26:52.764Z,24.93
2018-12-05T03:29:21.531Z,30.00
2018-12-05T03:31:50.045Z,32.33
2018-12-05T03:34:18.600Z,30.40
2018-12-05T03:36:47.105Z,30.60
2018-12-05T03:39:15.625Z,40.10
2018-12-05T03:41:44.159Z,35.07
2018-12-05T03:44:12.672Z,37.23
2018-12-05T03:46:41.190Z,26.90
2018-12-05T03:49:09.943Z,31.33
2018-12-05T03:51:38.479Z,33.70
2018-12-05T03:54:07.294Z,37.87
2018-12-05T03:56:35.937Z,31.70
2018-12-05T03:59:04.481Z,35.47
2018-12-05T04:01:32.988Z,40.93
2018-12-05T04:04:01.567Z,38.73
2018-12-05T04:06:30.086Z,35.20
2018-12-05T04:08:58.674Z,33.90
2018-12-05T04:11:27.207Z,43.40
2018-12-05T04:13:55.778Z,34.23
2018-12-05T04:16:25.212Z,33.13
2018-12-05T04:18:53.794Z,28.00
2018-12-05T04:21:22.402Z,30.67
2018-12-05T04:23:50.962Z,29.53
2018-12-05T04:26:19.579Z,32.00
2018-12-05T04:28:48.159Z,35.60
2018-12-05T04:31:19.618Z,31.77
2018-12-05T04:33:48.427Z,37.30
2018-12-05T04:36:16.958Z,47.67
2018-12-05T04:38:45.524Z,34.37
2018-12-05T04:41:14.036Z,37.47
2018-12-05T04:43:42.594Z,38.43
2018-12-05T04:46:11.136Z,46.97
2018-12-05T04:48:39.857Z,34.23
2018-12-05T04:51:08.400Z,41.50
2018-12-05T04:53:36.951Z,34.43
2018-12-05T04:56:05.530Z,36.57
2018-12-05T04:58:34.103Z,31.03
2018-12-05T05:01:02.640Z,28.63
2018-12-05T05:03:31.239Z,30.10
2018-12-05T05:05:59.831Z,31.20
2018-12-05T05:08:28.401Z,29.47
2018-12-05T05:10:56.911Z,38.63
2018-12-05T05:13:25.832Z,37.37
2018-12-05T05:15:54.374Z,29.13
2018-12-05T05:18:23.225Z,45.07
2018-12-05T05:20:51.775Z,42.43
2018-12-05T05:23:20.493Z,41.50
2018-12-05T05:25:49.061Z,40.63
2018-12-05T05:28:17.873Z,35.27
2018-12-05T05:30:46.384Z,44.27
2018-12-05T05:33:14.890Z,36.37
2018-12-05T05:35:43.411Z,39.73
2018-12-05T05:38:11.938Z,40.60
2018-12-05T05:40:40.419Z,43.73
2018-12-05T05:43:09.291Z,36.73
2018-12-05T05:45:37.816Z,39.80
2018-12-05T05:48:06.665Z,44.13
2018-12-05T05:50:35.234Z,41.67
2018-12-05T05:53:03.780Z,48.20
2018-12-05T05:55:32.290Z,45.03
2018-12-05T05:58:01.197Z,42.17
2018-12-05T06:00:29.797Z,45.57
2018-12-05T06:02:58.394Z,49.83
2018-12-05T06:05:26.889Z,57.10
2018-12-05T06:07:55.689Z,54.93
2018-12-05T06:10:24.211Z,55.20
2018-12-05T06:12:52.790Z,53.93
2018-12-05T06:15:21.415Z,61.23
2018-12-05T06:17:50.107Z,48.73
2018-12-05T06:20:18.650Z,50.73
2018-12-05T06:22:47.204Z,43.10
2018-12-05T06:25:15.746Z,46.20
2018-12-05T06:27:44.589Z,47.43
2018-12-05T06:30:13.115Z,53.43
2018-12-05T06:32:41.738Z,51.07
2018-12-05T06:35:10.300Z,54.20
2018-12-05T06:37:38.871Z,54.67
2018-12-05T06:40:07.603Z,42.63
2018-12-05T06:42:36.543Z,53.90
2018-12-05T06:45:05.058Z,49.53
2018-12-05T06:47:33.706Z,60.70
2018-12-05T06:50:02.353Z,63.70
2018-12-05T06:52:30.970Z,53.97
2018-12-05T06:54:59.481Z,53.57
2018-12-05T06:57:28.001Z,60.50
2018-12-05T06:59:56.852Z,59.13
2018-12-05T07:02:25.821Z,49.10
2018-12-05T07:04:54.353Z,51.70
2018-12-05T07:07:23.229Z,52.90
2018-12-05T07:09:52.184Z,53.03
2018-12-05T07:12:21.195Z,49.13
2018-12-05T07:14:50.119Z,45.57
2018-12-05T07:17:18.801Z,51.83
2018-12-05T07:19:47.299Z,48.90
2018-12-05T07:22:16.041Z,44.73
2018-12-05T07:24:44.559Z,46.67
2018-12-05T07:27:13.216Z,60.20
2018-12-05T07:29:41.733Z,65.33
2018-12-05T07:32:10.397Z,46.73
2018-12-05T07:34:39.040Z,52.73
2018-12-05T07:37:07.670Z,53.40
2018-12-05T07:39:36.204Z,52.60
2018-12-05T07:42:05.094Z,51.00
2018-12-05T07:44:33.629Z,45.20
2018-12-05T07:47:02.379Z,40.37
2018-12-05T07:49:31.455Z,46.60
2018-12-05T07:52:00.368Z,46.33
2018-12-05T07:54:28.857Z,53.93
2018-12-05T07:56:57.446Z,45.20
2018-12-05T07:59:26.013Z,44.10
2018-12-05T08:01:54.802Z,51.23
2018-12-05T08:04:23.374Z,39.53
2018-12-05T08:06:52.231Z,36.20
2018-12-05T08:09:20.766Z,38.77
2018-12-05T08:11:49.295Z,37.27
2018-12-05T08:14:17.980Z,36.70
2018-12-05T08:16:46.606Z,36.47
2018-12-05T08:19:15.109Z,34.67
2018-12-05T08:21:43.648Z,32.30
2018-12-05T08:24:12.403Z,33.30
2018-12-05T08:26:41.187Z,31.17
2018-12-05T08:29:09.697Z,31.37
2018-12-05T08:31:38.471Z,32.33
2018-12-05T08:34:07.076Z,33.10
2018-12-05T08:36:35.656Z,33.63
2018-12-05T08:39:05.777Z,32.37
2018-12-05T08:41:34.658Z,47.30
2018-12-05T08:44:03.239Z,50.63
2018-12-05T08:46:31.812Z,44.03
2018-12-05T08:49:00.320Z,34.70
2018-12-05T08:51:29.149Z,36.00
2018-12-05T08:53:57.720Z,40.10
2018-12-05T08:56:26.503Z,29.87
2018-12-05T08:58:55.087Z,25.00
2018-12-05T09:01:23.617Z,24.10
2018-12-05T09:03:52.187Z,26.07
2018-12-05T09:06:21.171Z,25.17
2018-12-05T09:08:49.695Z,28.53
2018-12-05T09:11:18.650Z,27.23
2018-12-05T09:13:47.245Z,45.37
2018-12-05T09:16:15.988Z,24.87
2018-12-05T09:18:44.605Z,26.70
2018-12-05T09:21:13.471Z,34.03
2018-12-05T09:23:42.133Z,27.70
2018-12-05T09:26:10.988Z,23.67
2018-12-05T09:28:39.573Z,31.93
2018-12-05T09:31:08.118Z,25.27
2018-12-05T09:33:36.723Z,22.83
2018-12-05T09:36:05.367Z,24.93
2018-12-05T09:38:34.007Z,22.73
2018-12-05T09:41:02.713Z,28.47
2018-12-05T09:43:31.237Z,39.63
2018-12-05T09:46:00.087Z,34.03
2018-12-05T09:48:28.589Z,27.40
2018-12-05T09:50:57.487Z,26.90
2018-12-05T09:53:26.046Z,24.93
2018-12-05T09:55:54.588Z,25.20
2018-12-05T09:58:23.141Z,22.33
2018-12-05T10:00:51.716Z,24.83
2018-12-05T10:03:20.259Z,28.63
2018-12-05T10:05:49.090Z,41.17
2018-12-05T10:08:17.650Z,33.83
2018-12-05T10:10:46.221Z,21.17
2018-12-05T10:13:14.749Z,20.20
2018-12-05T10:15:43.545Z,29.13
2018-12-05T10:18:12.179Z,24.70
2018-12-05T10:20:41.019Z,27.53
2018-12-05T10:23:09.586Z,24.70
2018-12-05T10:25:38.398Z,26.43
2018-12-05T10:28:06.937Z,30.20
2018-12-05T10:30:35.481Z,28.70
2018-12-05T10:33:04.107Z,26.33
2018-12-05T10:35:32.671Z,69.27
2018-12-05T10:38:01.209Z,38.87
2018-12-05T10:40:30.023Z,34.90
2018-12-05T10:42:58.533Z,25.90
2018-12-05T10:45:27.523Z,29.77
2018-12-05T10:47:56.126Z,28.10
2018-12-05T10:50:24.991Z,33.27
2018-12-05T10:52:53.526Z,21.83
2018-12-05T10:55:22.280Z,22.27
2018-12-05T10:57:50.829Z,28.53
2018-12-05T11:00:22.821Z,27.67
2018-12-05T11:02:56.868Z,31.67
2018-12-05T11:05:29.628Z,30.73
2018-12-05T11:08:03.274Z,32.30
2018-12-05T11:10:37.351Z,35.03
2018-12-05T11:13:11.001Z,29.60
2018-12-05T11:15:45.030Z,31.03
2018-12-05T11:18:18.689Z,27.77
2018-12-05T11:20:52.972Z,25.87
2018-12-05T11:23:26.717Z,25.27
2018-12-05T11:25:56.133Z,29.20
2018-12-05T11:28:24.692Z,28.17
2018-12-05T11:30:53.235Z,25.70
2018-12-05T11:33:21.762Z,23.90
2018-12-05T11:35:50.330Z,25.47
2018-12-05T11:38:18.858Z,27.70
2018-12-05T11:40:47.428Z,21.73
2018-12-05T11:43:15.949Z,24.67
2018-12-05T11:45:44.517Z,22.40
2018-12-05T11:48:13.054Z,19.80
2018-12-05T11:50:41.852Z,28.57
2018-12-05T11:53:10.363Z,26.00
2018-12-05T11:55:38.970Z,22.53
2018-12-05T11:58:07.570Z,23.00
2018-12-05T12:00:36.160Z,18.40
2018-12-05T12:03:04.736Z,30.23
2018-12-05T12:05:33.311Z,26.67
2018-12-05T12:08:01.926Z,28.67
2018-12-05T12:10:35.693Z,25.70
2018-12-05T12:13:07.549Z,36.57
2018-12-05T12:15:36.087Z,25.97
2018-12-05T12:18:04.691Z,30.70
2018-12-05T12:20:33.617Z,31.33
2018-12-05T12:23:02.145Z,27.40
2018-12-05T12:25:31.198Z,27.10
2018-12-05T12:27:59.756Z,33.57
2018-12-05T12:30:28.358Z,25.90
2018-12-05T12:32:56.868Z,26.67
2018-12-05T12:35:25.386Z,28.67
2018-12-05T12:37:54.197Z,27.17
2018-12-05T12:40:22.920Z,25.63
2018-12-05T12:42:51.409Z,31.33
2018-12-05T12:45:20.174Z,26.67
2018-12-05T12:47:48.785Z,27.03
2018-12-05T12:50:17.406Z,23.23
2018-12-05T12:52:45.912Z,34.63
2018-12-05T12:55:14.435Z,25.77
2018-12-05T12:57:42.943Z,25.80
2018-12-05T13:00:11.704Z,28.83
2018-12-05T13:02:40.245Z,32.90
2018-12-05T13:05:08.783Z,21.93
2018-12-05T13:07:37.378Z,22.40
2018-12-05T13:10:06.834Z,20.03
2018-12-05T13:12:35.423Z,24.30
2018-12-05T13:15:04.152Z,18.63
2018-12-05T13:17:32.694Z,20.10
2018-12-05T13:20:01.430Z,23.53
2018-12-05T13:22:29.919Z,15.77
2018-12-05T13:24:58.812Z,17.73
2018-12-05T13:27:27.432Z,17.23
2018-12-05T13:29:55.952Z,14.83
2018-12-05T13:32:24.512Z,18.20
2018-12-05T13:34:53.363Z,22.13
2018-12-05T13:37:21.893Z,14.90
2018-12-05T13:39:50.764Z,16.13
2018-12-05T13:42:19.266Z,17.40
2018-12-05T13:44:47.777Z,19.67
2018-12-05T13:47:16.286Z,15.90
2018-12-05T13:49:45.105Z,28.83
2018-12-05T13:52:13.629Z,23.83
2018-12-05T13:54:42.377Z,23.07
2018-12-05T13:57:10.904Z,27.80
2018-12-05T13:59:39.426Z,25.40
2018-12-05T14:02:07.944Z,34.63
2018-12-05T14:04:36.470Z,29.63
2018-12-05T14:07:04.997Z,29.47
2018-12-05T14:09:33.555Z,33.80
2018-12-05T14:12:02.122Z,25.10
2018-12-05T14:14:30.718Z,34.83
2018-12-05T14:16:59.258Z,24.57
2018-12-05T14:19:27.835Z,29.57
2018-12-05T14:21:56.418Z,28.37
2018-12-05T14:24:24.964Z,27.83
2018-12-05T14:26:53.633Z,26.50
2018-12-05T14:29:22.604Z,33.03
2018-12-05T14:31:51.210Z,26.47
2018-12-05T14:34:19.826Z,31.90
2018-12-05T14:36:48.413Z,31.77
2018-12-05T14:39:17.107Z,24.57
2018-12-05T14:41:45.670Z,29.63
2018-12-05T14:44:14.437Z,24.13
2018-12-05T14:46:42.998Z,25.10
2018-12-05T14:49:11.817Z,26.97
2018-12-05T14:51:40.541Z,33.27
2018-12-05T14:54:09.091Z,31.23
2018-12-05T14:56:37.626Z,34.50
2018-12-05T14:59:06.169Z,32.03
2018-12-05T15:01:34.716Z,31.90
2018-12-05T15:04:03.308Z,33.47
2018-12-05T15:06:32.306Z,35.17
2018-12-05T15:09:01.127Z,33.47
2018-12-05T15:11:29.643Z,32.50
2018-12-05T15:13:58.242Z,31.03
2018-12-05T15:16:26.825Z,38.30
2018-12-05T15:18:55.380Z,36.90
2018-12-05T15:21:23.950Z,40.17
2018-12-05T15:23:52.513Z,44.03
2018-12-05T15:26:21.205Z,46.27
2018-12-05T15:28:50.076Z,48.53
2018-12-05T15:31:18.680Z,52.63
2018-12-05T15:33:47.323Z,49.67
2018-12-05T15:36:15.990Z,50.63
2018-12-05T15:38:44.597Z,62.73
2018-12-05T15:41:13.147Z,73.23
2018-12-05T15:43:42.037Z,69.93
2018-12-05T15:46:10.591Z,74.47
2018-12-05T15:48:39.317Z,81.70
2018-12-05T15:51:07.940Z,86.00
2018-12-05T15:53:37.007Z,91.40
2018-12-05T15:56:05.612Z,86.67
2018-12-05T15:58:34.537Z,84.80
2018-12-05T16:01:03.057Z,89.50
2018-12-05T16:03:31.594Z,84.13
2018-12-05T16:06:00.164Z,85.67
2018-12-05T16:08:28.747Z,91.17
2018-12-05T16:10:57.378Z,91.70
2018-12-05T16:13:25.984Z,102.83
2018-12-05T16:15:54.614Z,131.60
2018-12-05T16:18:23.189Z,174.90
2018-12-05T16:20:51.836Z,317.93
2018-12-05T16:23:20.694Z,359.27
2018-12-05T16:25:49.312Z,383.83
2018-12-05T16:28:18.005Z,438.33
2018-12-05T16:30:46.538Z,388.73
2018-12-05T16:33:15.260Z,362.03
2018-12-05T16:35:44.227Z,343.20
2018-12-05T16:38:13.075Z,326.30
2018-12-05T16:40:41.718Z,324.17
2018-12-05T16:43:10.529Z,319.63
2018-12-05T16:45:39.069Z,334.23
2018-12-05T16:48:07.911Z,321.37
2018-12-05T16:50:36.475Z,309.17
2018-12-05T16:53:05.401Z,320.20
2018-12-05T16:55:33.932Z,321.40
2018-12-05T16:58:02.470Z,314.40
2018-12-05T17:00:31.033Z,314.53
2018-12-05T17:02:59.569Z,314.57
2018-12-05T17:05:28.126Z,301.50
2018-12-05T17:07:56.671Z,321.90
2018-12-05T17:10:25.212Z,316.60
2018-12-05T17:12:53.904Z,313.43
2018-12-05T17:15:22.412Z,321.27
2018-12-05T17:17:50.950Z,301.17
2018-12-05T17:20:19.496Z,299.93
2018-12-05T17:22:48.221Z,289.40
2018-12-05T17:25:16.778Z,297.07
2018-12-05T17:27:45.331Z,270.37
2018-12-05T17:30:13.951Z,289.83
2018-12-05T17:32:42.509Z,299.57
2018-12-05T17:35:11.042Z,288.90
2018-12-05T17:37:39.577Z,290.60
2018-12-05T17:40:08.327Z,311.23
2018-12-05T17:42:36.933Z,319.83
2018-12-05T17:45:05.520Z,345.20
2018-12-05T17:47:34.475Z,351.57
2018-12-05T17:50:03.082Z,393.47
2018-12-05T17:52:31.671Z,401.53
2018-12-05T17:55:00.197Z,445.37
2018-12-05T17:57:28.987Z,467.80
2018-12-05T17:59:57.533Z,472.03
2018-12-05T18:02:26.328Z,452.83
2018-12-05T18:04:55.768Z,452.07
2018-12-05T18:07:25.148Z,456.83
2018-12-05T18:09:54.069Z,437.30
2018-12-05T18:12:22.733Z,451.10
2018-12-05T18:14:51.801Z,464.97
2018-12-05T18:17:21.054Z,494.67
2018-12-05T18:19:50.039Z,575.63
2018-12-05T18:22:18.950Z,627.50
2018-12-05T18:24:47.626Z,642.87
2018-12-05T18:27:16.554Z,689.10
2018-12-05T18:29:45.204Z,697.43
2018-12-05T18:32:14.015Z,721.10
2018-12-05T18:34:42.582Z,728.90
2018-12-05T18:37:11.160Z,755.03
2018-12-05T18:39:40.427Z,746.80
2018-12-05T18:42:09.217Z,696.90
2018-12-05T18:44:37.754Z,697.27
2018-12-05T18:47:06.329Z,670.63
2018-12-05T18:49:34.891Z,616.27
2018-12-05T18:52:03.621Z,607.67
2018-12-05T18:54:32.200Z,571.83
2018-12-05T18:57:01.046Z,565.23
2018-12-05T18:59:29.575Z,542.97
2018-12-05T19:01:58.389Z,538.83
2018-12-05T19:04:26.933Z,556.37
2018-12-05T19:06:55.504Z,554.67
2018-12-05T19:09:27.061Z,553.03
2018-12-05T19:11:54.659Z,510.60
2018-12-05T19:14:28.473Z,500.07
2018-12-05T19:16:57.399Z,507.30
2018-12-05T19:19:25.950Z,491.83
2018-12-05T19:21:54.764Z,485.70
2018-12-05T19:24:23.289Z,467.90
2018-12-05T19:26:52.359Z,451.90
2018-12-05T19:29:21.059Z,445.40
2018-12-05T19:31:49.712Z,413.37
2018-12-05T19:34:18.281Z,412.80
2018-12-05T19:36:47.118Z,451.87
2018-12-05T19:39:15.643Z,459.87
2018-12-05T19:41:44.490Z,471.57
2018-12-05T19:44:13.167Z,477.93
2018-12-05T19:46:41.745Z,495.97
2018-12-05T19:49:10.284Z,544.70
2018-12-05T19:51:38.841Z,567.30
2018-12-05T19:54:07.472Z,605.57
2018-12-05T19:56:36.337Z,600.97
2018-12-05T19:59:04.935Z,606.37
2018-12-05T20:01:33.761Z,602.00
2018-12-05T20:04:02.374Z,663.70
2018-12-05T20:06:30.988Z,685.10
2018-12-05T20:08:59.824Z,744.93
2018-12-05T20:11:28.609Z,742.53
2018-12-05T20:13:57.172Z,701.47
2018-12-05T20:16:25.956Z,662.40
2018-12-05T20:18:54.611Z,662.43
2018-12-05T20:21:23.258Z,636.83
2018-12-05T20:23:51.818Z,648.73
2018-12-05T20:26:20.509Z,644.60
2018-12-05T20:28:49.028Z,595.73
2018-12-05T20:31:17.772Z,592.17
2018-12-05T20:33:46.308Z,601.60
2018-12-05T20:36:14.893Z,585.37
2018-12-05T20:38:43.714Z,575.73
2018-12-05T20:41:12.396Z,568.20
2018-12-05T20:43:41.129Z,583.47
2018-12-05T20:46:09.952Z,558.93
2018-12-05T20:48:38.665Z,558.87
2018-12-05T20:51:08.512Z,551.10
2018-12-05T20:53:37.351Z,558.53
2018-12-05T20:56:06.711Z,550.70
2018-12-05T20:58:35.705Z,548.03
2018-12-05T21:01:04.600Z,535.70
2018-12-05T21:03:33.281Z,504.03
2018-12-05T21:06:02.197Z,504.50
2018-12-05T21:08:30.924Z,513.33
2018-12-05T21:10:59.669Z,493.83
2018-12-05T21:13:28.405Z,482.90
2018-12-05T21:15:57.155Z,461.70
2018-12-05T21:18:26.342Z,418.60
2018-12-05T21:20:55.987Z,430.83
2018-12-05T21:23:24.599Z,412.37
2018-12-05T21:25:53.602Z,339.60
2018-12-05T21:28:22.378Z,328.47
2018-12-05T21:30:52.490Z,324.20
2018-12-05T21:33:21.176Z,331.47
2018-12-05T21:35:51.347Z,309.53
2018-12-05T21:38:20.308Z,295.17
2018-12-05T21:40:50.122Z,298.80
2018-12-05T21:43:18.711Z,260.80
2018-12-05T21:45:48.128Z,261.17
2018-12-05T21:48:16.806Z,266.67
2018-12-05T21:50:45.702Z,245.50
2018-12-05T21:53:14.266Z,232.83
2018-12-05T21:55:44.260Z,229.03
2018-12-05T21:58:12.813Z,230.57
2018-12-05T22:00:41.402Z,234.40
2018-12-05T22:03:09.964Z,241.43
2018-12-05T22:05:38.584Z,254.00
2018-12-05T22:08:07.165Z,250.07
2018-12-05T22:10:35.977Z,239.10
2018-12-05T22:13:04.482Z,248.47
2018-12-05T22:15:33.062Z,258.30
2018-12-05T22:18:01.602Z,274.50
2018-12-05T22:20:30.294Z,264.70
2018-12-05T22:22:58.826Z,262.27
2018-12-05T22:25:27.402Z,278.33
2018-12-05T22:27:55.917Z,269.23
2018-12-05T22:30:24.619Z,276.03
2018-12-05T22:32:53.150Z,277.63
2018-12-05T22:35:21.853Z,273.93
2018-12-05T22:37:50.378Z,271.70
2018-12-05T22:40:19.015Z,275.20
2018-12-05T22:42:47.594Z,306.20
2018-12-05T22:45:16.213Z,302.40
2018-12-05T22:47:44.896Z,307.30
2018-12-05T22:50:13.613Z,302.70
2018-12-05T22:52:42.166Z,301.53
2018-12-05T22:55:10.821Z,286.33
2018-12-05T22:57:39.358Z,285.67
2018-12-05T23:00:11.446Z,285.40
2018-12-05T23:02:39.970Z,278.13
2018-12-05T23:05:08.542Z,285.03
2018-12-05T23:07:37.160Z,282.77
2018-12-05T23:10:05.833Z,286.57
2018-12-05T23:12:34.358Z,266.20
2018-12-05T23:15:03.173Z,279.70
2018-12-05T23:17:31.686Z,279.40
2018-12-05T23:20:00.262Z,276.07
2018-12-05T23:22:28.771Z,294.07
2018-12-05T23:24:57.474Z,288.53
2018-12-05T23:27:25.984Z,276.17
2018-12-05T23:29:54.519Z,294.00
2018-12-05T23:32:23.045Z,279.53
2018-12-05T23:34:51.622Z,284.80
2018-12-05T23:37:21.143Z,279.73
2018-12-05T23:39:49.670Z,290.80
2018-12-05T23:42:18.198Z,281.67
2018-12-05T23:44:46.725Z,277.73
2018-12-05T23:47:15.516Z,274.13
2018-12-05T23:49:44.069Z,280.63
2018-12-05T23:52:12.642Z,270.70
2018-12-05T23:54:41.164Z,273.33
2018-12-05T23:57:09.715Z,263.00
2018-12-05T23:59:38.251Z,260.17
